PWSweather.com
Personal Weather Stations
Station Observations
WX47784
Tuolumne County, CA

Tuolumne County, CA

Lat: 37.9895, Lon: -120.2366

Elevation: 3065.3

Station Type:

Latest ConditionsUpdated 8:06:53 AM PST Saturday, Dec 7, 2019
Currently Today's Max Today's Min Today's Average
Temperature 48.4°F9.1°C 49.3°F9.6°C 47.5°F8.6°C 47.9°F8.8°C
Dew Point 45.9°F7.7°C 46.0°F7.8°C 43.0°F6.1°C 45.6°F7.6°C
Winds 0.8 mph NE1.3 kmh NE 1.4 mph -2.3 kmh - - 0.6 mph 1.0 kmh
Wind Gusts 1.3 mph2.1 kmh 3.0 mph4.8 kmh - -
Humidity 91% 93% 79% 92%
Pressure 26.87 in909.9 mb 26.88 in910.3 mb 26.84 in908.9 mb -
Precipitation - 0.73 in18.5 mm - -
Hour Temp Dew Point Humidity Winds Wind Gusts Pressure Precip Precip Rate Daily Precip Total
08:06 AM 48.4°F9.1°C 45.9°F7.7°C 91% 0.8 mph NE1.3 kmh NE 1.3 mph2.1 kmh 26.87 in909.9 mb 0.03 in0.8 mm 0.00 in0.0 mm 0.73 in18.5 mm
08:01 AM 48.4°F9.1°C 45.9°F7.7°C 91% 0.5 mph E0.8 kmh E 0.8 mph1.3 kmh 26.87 in909.9 mb 0.03 in0.8 mm 0.00 in0.0 mm 0.73 in18.5 mm
07:56 AM 48.4°F9.1°C 45.9°F7.7°C 91% 0.6 mph SE1.0 kmh SE 1.1 mph1.8 kmh 26.87 in909.9 mb 0.04 in1.0 mm 0.00 in0.0 mm 0.73 in18.5 mm
07:51 AM 48.2°F9.0°C 45.7°F7.6°C 91% 0.6 mph E1.0 kmh E 1.0 mph1.6 kmh 26.87 in909.9 mb 0.07 in1.8 mm 0.00 in0.0 mm 0.73 in18.5 mm
07:46 AM 48.0°F8.9°C 45.5°F7.5°C 91% 0.4 mph W0.6 kmh W 1.1 mph1.8 kmh 26.87 in909.9 mb 0.07 in1.8 mm 0.00 in0.0 mm 0.73 in18.5 mm
07:41 AM 48.0°F8.9°C 45.5°F7.5°C 91% 0.5 mph E0.8 kmh E 0.9 mph1.4 kmh 26.87 in909.9 mb 0.08 in2.0 mm 0.00 in0.0 mm 0.73 in18.5 mm
07:36 AM 48.0°F8.9°C 45.5°F7.5°C 91% 0.3 mph E0.5 kmh E 0.7 mph1.1 kmh 26.87 in909.9 mb 0.08 in2.0 mm 0.00 in0.0 mm 0.73 in18.5 mm
07:31 AM 48.0°F8.9°C 45.5°F7.5°C 91% 0.6 mph E1.0 kmh E 0.9 mph1.4 kmh 26.86 in909.6 mb 0.11 in2.8 mm 0.00 in0.0 mm 0.73 in18.5 mm
07:26 AM 48.0°F8.9°C 45.5°F7.5°C 91% 0.9 mph ENE1.4 kmh ENE 2.6 mph4.2 kmh 26.86 in909.6 mb 0.13 in3.3 mm 0.00 in0.0 mm 0.73 in18.5 mm
07:21 AM 48.0°F8.9°C 45.5°F7.5°C 91% 0.4 mph E0.6 kmh E 1.0 mph1.6 kmh 26.87 in909.9 mb 0.13 in3.3 mm 0.01 in0.3 mm 0.73 in18.5 mm
07:16 AM 48.0°F8.9°C 45.5°F7.5°C 91% 0.4 mph ENE0.6 kmh ENE 0.7 mph1.1 kmh 26.86 in909.6 mb 0.13 in3.3 mm 0.08 in2.0 mm 0.72 in18.3 mm
07:11 AM 48.0°F8.9°C 45.5°F7.5°C 91% 0.4 mph ENE0.6 kmh ENE 0.8 mph1.3 kmh 26.86 in909.6 mb 0.12 in3.0 mm 0.16 in4.1 mm 0.71 in18.0 mm
07:06 AM 48.0°F8.9°C 45.5°F7.5°C 91% 0.3 mph SE0.5 kmh SE 0.7 mph1.1 kmh 26.86 in909.6 mb 0.11 in2.8 mm 0.04 in1.0 mm 0.70 in17.8 mm
07:01 AM 47.8°F8.8°C 45.3°F7.4°C 91% 0.4 mph ENE0.6 kmh ENE 0.6 mph1.0 kmh 26.86 in909.6 mb 0.11 in2.8 mm 0.00 in0.0 mm 0.69 in17.5 mm
06:55 AM 47.8°F8.8°C 45.3°F7.4°C 91% 0.4 mph E0.6 kmh E 0.7 mph1.1 kmh 26.86 in909.6 mb 0.10 in2.5 mm 0.00 in0.0 mm 0.67 in17.0 mm
06:50 AM 47.8°F8.8°C 45.3°F7.4°C 91% 0.6 mph E1.0 kmh E 1.3 mph2.1 kmh 26.86 in909.6 mb 0.13 in3.3 mm 0.00 in0.0 mm 0.66 in16.8 mm
06:45 AM 47.8°F8.8°C 45.3°F7.4°C 91% 0.7 mph E1.1 kmh E 1.2 mph1.9 kmh 26.86 in909.6 mb 0.13 in3.3 mm 0.00 in0.0 mm 0.65 in16.5 mm
06:40 AM 47.8°F8.8°C 45.3°F7.4°C 91% 0.2 mph SE0.3 kmh SE 0.8 mph1.3 kmh 26.86 in909.6 mb 0.14 in3.6 mm 0.12 in3.0 mm 0.65 in16.5 mm
06:35 AM 47.8°F8.8°C 45.3°F7.4°C 91% 0.8 mph SE1.3 kmh SE 1.7 mph2.7 kmh 26.86 in909.6 mb 0.13 in3.3 mm 0.17 in4.3 mm 0.63 in16.0 mm
06:30 AM 47.8°F8.8°C 45.3°F7.4°C 91% 0.6 mph E1.0 kmh E 1.7 mph2.7 kmh 26.86 in909.6 mb 0.12 in3.0 mm 0.20 in5.1 mm 0.62 in15.7 mm
06:25 AM 47.8°F8.8°C 45.3°F7.4°C 91% 0.6 mph SE1.0 kmh SE 1.0 mph1.6 kmh 26.86 in909.6 mb 0.10 in2.5 mm 0.00 in0.0 mm 0.60 in15.2 mm
06:20 AM 47.7°F8.7°C 45.1°F7.3°C 91% 0.4 mph E0.6 kmh E 0.7 mph1.1 kmh 26.85 in909.2 mb 0.12 in3.0 mm 0.00 in0.0 mm 0.60 in15.2 mm
06:15 AM 47.7°F8.7°C 45.1°F7.3°C 91% 0.7 mph E1.1 kmh E 1.6 mph2.6 kmh 26.85 in909.2 mb 0.15 in3.8 mm 0.00 in0.0 mm 0.59 in15.0 mm
06:10 AM 47.7°F8.7°C 45.1°F7.3°C 91% 0.4 mph E0.6 kmh E 0.8 mph1.3 kmh 26.85 in909.2 mb 0.15 in3.8 mm 0.00 in0.0 mm 0.59 in15.0 mm
06:05 AM 47.7°F8.7°C 45.1°F7.3°C 91% 0.5 mph ESE0.8 kmh ESE 1.1 mph1.8 kmh 26.85 in909.2 mb 0.15 in3.8 mm 0.07 in1.8 mm 0.59 in15.0 mm
06:00 AM 47.7°F8.7°C 45.7°F7.6°C 93% Calm Calm -- 26.85 in909.2 mb 0.14 in3.6 mm 0.02 in0.5 mm 0.59 in15.0 mm
05:55 AM 47.7°F8.7°C 45.7°F7.6°C 93% 0.2 mph ESE0.3 kmh ESE 0.9 mph1.4 kmh 26.85 in909.2 mb 0.13 in3.3 mm 0.49 in12.4 mm 0.57 in14.5 mm
05:50 AM 47.7°F8.7°C 45.7°F7.6°C 93% 0.4 mph SW0.6 kmh SW 1.2 mph1.9 kmh 26.85 in909.2 mb 0.09 in2.3 mm 0.04 in1.0 mm 0.53 in13.5 mm
05:45 AM 47.7°F8.7°C 45.7°F7.6°C 93% 0.3 mph E0.5 kmh E 0.5 mph0.8 kmh 26.85 in909.2 mb 0.08 in2.0 mm 0.19 in4.8 mm 0.53 in13.5 mm
05:40 AM 47.7°F8.7°C 45.7°F7.6°C 93% 0.7 mph ENE1.1 kmh ENE 1.2 mph1.9 kmh 26.85 in909.2 mb 0.07 in1.8 mm 0.07 in1.8 mm 0.51 in13.0 mm
05:35 AM 47.7°F8.7°C 45.7°F7.6°C 93% 0.4 mph SE0.6 kmh SE 0.9 mph1.4 kmh 26.85 in909.2 mb 0.06 in1.5 mm 0.06 in1.5 mm 0.50 in12.7 mm
05:30 AM 47.7°F8.7°C 45.7°F7.6°C 93% 0.4 mph NNW0.6 kmh NNW 1.1 mph1.8 kmh 26.85 in909.2 mb 0.06 in1.5 mm 0.00 in0.0 mm 0.50 in12.7 mm
05:25 AM 47.7°F8.7°C 45.7°F7.6°C 93% 0.8 mph S1.3 kmh S 2.0 mph3.2 kmh 26.85 in909.2 mb 0.06 in1.5 mm 0.28 in7.1 mm 0.50 in12.7 mm
05:20 AM 47.7°F8.7°C 45.7°F7.6°C 93% 0.5 mph NNW0.8 kmh NNW 1.7 mph2.7 kmh 26.85 in909.2 mb 0.03 in0.8 mm 0.29 in7.4 mm 0.47 in11.9 mm
05:15 AM 47.8°F8.8°C 45.9°F7.7°C 93% 0.4 mph ESE0.6 kmh ESE 0.6 mph1.0 kmh 26.85 in909.2 mb 0.01 in0.3 mm 0.00 in0.0 mm 0.44 in11.2 mm
05:10 AM 47.7°F8.7°C 45.7°F7.6°C 93% 0.8 mph SE1.3 kmh SE 1.5 mph2.4 kmh 26.84 in908.9 mb 0.01 in0.3 mm 0.00 in0.0 mm 0.44 in11.2 mm
05:05 AM 47.7°F8.7°C 45.7°F7.6°C 93% 0.4 mph ESE0.6 kmh ESE 0.8 mph1.3 kmh 26.85 in909.2 mb 0.01 in0.3 mm 0.00 in0.0 mm 0.44 in11.2 mm
05:00 AM 47.7°F8.7°C 45.7°F7.6°C 93% 0.8 mph ENE1.3 kmh ENE 1.6 mph2.6 kmh 26.85 in909.2 mb 0.01 in0.3 mm 0.00 in0.0 mm 0.44 in11.2 mm
04:55 AM 47.7°F8.7°C 45.7°F7.6°C 93% 0.5 mph E0.8 kmh E 1.2 mph1.9 kmh 26.85 in909.2 mb 0.01 in0.3 mm 0.00 in0.0 mm 0.44 in11.2 mm
04:50 AM 47.7°F8.7°C 45.7°F7.6°C 93% 0.8 mph E1.3 kmh E 1.6 mph2.6 kmh 26.85 in909.2 mb 0.05 in1.3 mm 0.00 in0.0 mm 0.44 in11.2 mm
04:45 AM 47.7°F8.7°C 45.7°F7.6°C 93% 0.6 mph E1.0 kmh E 1.5 mph2.4 kmh 26.85 in909.2 mb 0.05 in1.3 mm 0.00 in0.0 mm 0.44 in11.2 mm
04:40 AM 47.7°F8.7°C 45.7°F7.6°C 93% 0.8 mph SE1.3 kmh SE 1.4 mph2.3 kmh 26.86 in909.6 mb 0.11 in2.8 mm 0.00 in0.0 mm 0.44 in11.2 mm
04:35 AM 47.7°F8.7°C 45.7°F7.6°C 93% 0.8 mph ESE1.3 kmh ESE 2.4 mph3.9 kmh 26.86 in909.6 mb 0.15 in3.8 mm 0.00 in0.0 mm 0.44 in11.2 mm
04:30 AM 47.7°F8.7°C 45.7°F7.6°C 93% 0.6 mph E1.0 kmh E 1.3 mph2.1 kmh 26.86 in909.6 mb 0.16 in4.1 mm 0.00 in0.0 mm 0.44 in11.2 mm
04:25 AM 47.7°F8.7°C 45.7°F7.6°C 93% 0.4 mph E0.6 kmh E 0.9 mph1.4 kmh 26.86 in909.6 mb 0.16 in4.1 mm 0.00 in0.0 mm 0.44 in11.2 mm
04:20 AM 47.7°F8.7°C 45.7°F7.6°C 93% 0.2 mph E0.3 kmh E 0.5 mph0.8 kmh 26.86 in909.6 mb 0.16 in4.1 mm 0.00 in0.0 mm 0.44 in11.2 mm
04:15 AM 47.5°F8.6°C 45.5°F7.5°C 93% 0.7 mph E1.1 kmh E 1.1 mph1.8 kmh 26.86 in909.6 mb 0.17 in4.3 mm 0.00 in0.0 mm 0.44 in11.2 mm
04:10 AM 47.7°F8.7°C 45.7°F7.6°C 93% 0.2 mph E0.3 kmh E 0.4 mph0.6 kmh 26.86 in909.6 mb 0.18 in4.6 mm 0.00 in0.0 mm 0.43 in10.9 mm
04:05 AM 47.7°F8.7°C 45.7°F7.6°C 93% 0.5 mph E0.8 kmh E 0.9 mph1.4 kmh 26.86 in909.6 mb 0.19 in4.8 mm 0.00 in0.0 mm 0.43 in10.9 mm
04:00 AM 47.7°F8.7°C 45.7°F7.6°C 93% 0.4 mph SE0.6 kmh SE 1.5 mph2.4 kmh 26.87 in909.9 mb 0.20 in5.1 mm 0.00 in0.0 mm 0.43 in10.9 mm
03:55 AM 47.8°F8.8°C 45.9°F7.7°C 93% 0.8 mph E1.3 kmh E 3.0 mph4.8 kmh 26.86 in909.6 mb 0.20 in5.1 mm 0.41 in10.4 mm 0.43 in10.9 mm
03:50 AM 47.8°F8.8°C 45.9°F7.7°C 93% 0.4 mph SE0.6 kmh SE 0.9 mph1.4 kmh 26.86 in909.6 mb 0.17 in4.3 mm 0.02 in0.5 mm 0.40 in10.2 mm
03:45 AM 47.8°F8.8°C 45.9°F7.7°C 93% 0.7 mph E1.1 kmh E 1.0 mph1.6 kmh 26.86 in909.6 mb 0.17 in4.3 mm 0.70 in17.8 mm 0.39 in9.9 mm
03:40 AM 47.8°F8.8°C 45.9°F7.7°C 93% 1.4 mph SSW2.3 kmh SSW 2.2 mph3.5 kmh 26.87 in909.9 mb 0.11 in2.8 mm 0.41 in10.4 mm 0.33 in8.4 mm
03:35 AM 47.8°F8.8°C 45.9°F7.7°C 93% 0.9 mph S1.4 kmh S 1.7 mph2.7 kmh 26.86 in909.6 mb 0.08 in2.0 mm 0.00 in0.0 mm 0.30 in7.6 mm
03:30 AM 48.0°F8.9°C 46.0°F7.8°C 93% 0.4 mph SSW0.6 kmh SSW 1.1 mph1.8 kmh 26.86 in909.6 mb 0.09 in2.3 mm 0.00 in0.0 mm 0.29 in7.4 mm
03:25 AM 48.0°F8.9°C 46.0°F7.8°C 93% 0.4 mph E0.6 kmh E 0.9 mph1.4 kmh 26.86 in909.6 mb 0.11 in2.8 mm 0.00 in0.0 mm 0.28 in7.1 mm
03:20 AM 48.0°F8.9°C 46.0°F7.8°C 93% 0.3 mph E0.5 kmh E 1.3 mph2.1 kmh 26.86 in909.6 mb 0.13 in3.3 mm 0.12 in3.0 mm 0.28 in7.1 mm
03:15 AM 48.0°F8.9°C 46.0°F7.8°C 93% 1.3 mph S2.1 kmh S 1.9 mph3.1 kmh 26.86 in909.6 mb 0.12 in3.0 mm 0.14 in3.6 mm 0.26 in6.6 mm
03:10 AM 48.0°F8.9°C 46.0°F7.8°C 93% 0.7 mph SSE1.1 kmh SSE 1.7 mph2.7 kmh 26.86 in909.6 mb 0.11 in2.8 mm 0.16 in4.1 mm 0.25 in6.4 mm
03:05 AM 48.0°F8.9°C 46.0°F7.8°C 93% 0.1 mph S0.2 kmh S 0.5 mph0.8 kmh 26.86 in909.6 mb 0.09 in2.3 mm 0.11 in2.8 mm 0.24 in6.1 mm
03:00 AM 47.8°F8.8°C 45.9°F7.7°C 93% 0.1 mph SE0.2 kmh SE 0.4 mph0.6 kmh 26.85 in909.2 mb 0.08 in2.0 mm 0.00 in0.0 mm 0.23 in5.8 mm
02:55 AM 47.8°F8.8°C 45.9°F7.7°C 93% 0.8 mph SE1.3 kmh SE 2.3 mph3.7 kmh 26.85 in909.2 mb 0.09 in2.3 mm 0.00 in0.0 mm 0.23 in5.8 mm
02:50 AM 47.8°F8.8°C 45.9°F7.7°C 93% 0.5 mph E0.8 kmh E 1.8 mph2.9 kmh 26.85 in909.2 mb 0.09 in2.3 mm 0.01 in0.3 mm 0.23 in5.8 mm
02:45 AM 47.8°F8.8°C 45.9°F7.7°C 93% 0.3 mph E0.5 kmh E 0.4 mph0.6 kmh 26.86 in909.6 mb 0.09 in2.3 mm 0.00 in0.0 mm 0.23 in5.8 mm
02:40 AM 48.0°F8.9°C 46.0°F7.8°C 93% 0.5 mph NE0.8 kmh NE 0.6 mph1.0 kmh 26.86 in909.6 mb 0.09 in2.3 mm 0.05 in1.3 mm 0.22 in5.6 mm
02:35 AM 48.0°F8.9°C 46.0°F7.8°C 93% 0.3 mph S0.5 kmh S 0.8 mph1.3 kmh 26.86 in909.6 mb 0.09 in2.3 mm 0.31 in7.9 mm 0.22 in5.6 mm
02:30 AM 48.0°F8.9°C 46.0°F7.8°C 93% 0.3 mph SSW0.5 kmh SSW 0.9 mph1.4 kmh 26.86 in909.6 mb 0.06 in1.5 mm 0.24 in6.1 mm 0.19 in4.8 mm
02:25 AM 48.0°F8.9°C 46.0°F7.8°C 93% 0.5 mph SSW0.8 kmh SSW 1.0 mph1.6 kmh 26.87 in909.9 mb 0.04 in1.0 mm 0.24 in6.1 mm 0.17 in4.3 mm
02:20 AM 48.0°F8.9°C 46.0°F7.8°C 93% 0.3 mph S0.5 kmh S 0.6 mph1.0 kmh 26.87 in909.9 mb 0.02 in0.5 mm 0.02 in0.5 mm 0.15 in3.8 mm
02:15 AM 48.0°F8.9°C 46.0°F7.8°C 93% 0.4 mph ESE0.6 kmh ESE 0.8 mph1.3 kmh 26.86 in909.6 mb 0.02 in0.5 mm 0.00 in0.0 mm 0.15 in3.8 mm
02:10 AM 48.0°F8.9°C 46.0°F7.8°C 93% 0.2 mph ENE0.3 kmh ENE 0.5 mph0.8 kmh 26.86 in909.6 mb 0.03 in0.8 mm 0.00 in0.0 mm 0.15 in3.8 mm
02:05 AM 48.0°F8.9°C 46.0°F7.8°C 93% 0.7 mph SE1.1 kmh SE 2.0 mph3.2 kmh 26.87 in909.9 mb 0.03 in0.8 mm 0.00 in0.0 mm 0.15 in3.8 mm
02:00 AM 48.0°F8.9°C 46.0°F7.8°C 93% 0.5 mph ESE0.8 kmh ESE 0.8 mph1.3 kmh 26.87 in909.9 mb 0.06 in1.5 mm 0.01 in0.3 mm 0.15 in3.8 mm
01:55 AM 47.8°F8.8°C 45.9°F7.7°C 93% 0.9 mph E1.4 kmh E 1.8 mph2.9 kmh 26.87 in909.9 mb 0.05 in1.3 mm 0.00 in0.0 mm 0.14 in3.6 mm
01:50 AM 47.8°F8.8°C 45.9°F7.7°C 93% 0.7 mph E1.1 kmh E 1.4 mph2.3 kmh 26.86 in909.6 mb 0.05 in1.3 mm 0.00 in0.0 mm 0.14 in3.6 mm
01:45 AM 47.8°F8.8°C 45.9°F7.7°C 93% 0.5 mph E0.8 kmh E 1.1 mph1.8 kmh 26.86 in909.6 mb 0.06 in1.5 mm 0.00 in0.0 mm 0.14 in3.6 mm
01:40 AM 47.8°F8.8°C 45.9°F7.7°C 93% 0.4 mph S0.6 kmh S 0.8 mph1.3 kmh 26.86 in909.6 mb 0.08 in2.0 mm 0.00 in0.0 mm 0.14 in3.6 mm
01:35 AM 47.7°F8.7°C 45.7°F7.6°C 93% 1.1 mph SSE1.8 kmh SSE 2.1 mph3.4 kmh 26.86 in909.6 mb 0.08 in2.0 mm 0.00 in0.0 mm 0.13 in3.3 mm
01:30 AM 47.5°F8.6°C 45.5°F7.5°C 93% 0.4 mph E0.6 kmh E 0.8 mph1.3 kmh 26.87 in909.9 mb 0.08 in2.0 mm 0.00 in0.0 mm 0.13 in3.3 mm
01:25 AM 47.5°F8.6°C 45.5°F7.5°C 93% 0.9 mph E1.4 kmh E 2.3 mph3.7 kmh 26.87 in909.9 mb 0.08 in2.0 mm 0.01 in0.3 mm 0.13 in3.3 mm
01:20 AM 47.5°F8.6°C 45.5°F7.5°C 93% 0.4 mph E0.6 kmh E 0.9 mph1.4 kmh 26.87 in909.9 mb 0.08 in2.0 mm 0.00 in0.0 mm 0.13 in3.3 mm
01:15 AM 47.5°F8.6°C 45.5°F7.5°C 93% 0.8 mph ESE1.3 kmh ESE 2.0 mph3.2 kmh 26.86 in909.6 mb 0.09 in2.3 mm 0.00 in0.0 mm 0.13 in3.3 mm
01:10 AM 47.5°F8.6°C 45.5°F7.5°C 93% 0.6 mph SE1.0 kmh SE 1.3 mph2.1 kmh 26.87 in909.9 mb 0.09 in2.3 mm 0.00 in0.0 mm 0.12 in3.0 mm
01:05 AM 47.7°F8.7°C 45.7°F7.6°C 93% 1.0 mph E1.6 kmh E 2.8 mph4.5 kmh 26.87 in909.9 mb 0.10 in2.5 mm 0.10 in2.5 mm 0.11 in2.8 mm
01:00 AM 47.7°F8.7°C 45.7°F7.6°C 93% 0.6 mph ESE1.0 kmh ESE 2.6 mph4.2 kmh 26.86 in909.6 mb 0.09 in2.3 mm 0.00 in0.0 mm 0.09 in2.3 mm
12:55 AM 47.7°F8.7°C 45.7°F7.6°C 93% 0.8 mph E1.3 kmh E 2.0 mph3.2 kmh 26.86 in909.6 mb 0.09 in2.3 mm 0.06 in1.5 mm 0.09 in2.3 mm
12:50 AM 47.8°F8.8°C 45.9°F7.7°C 93% 0.7 mph SE1.1 kmh SE 1.6 mph2.6 kmh 26.86 in909.6 mb 0.09 in2.3 mm 0.17 in4.3 mm 0.09 in2.3 mm
12:45 AM 48.0°F8.9°C 45.9°F7.7°C 92% 0.6 mph S1.0 kmh S 1.2 mph1.9 kmh 26.86 in909.6 mb 0.07 in1.8 mm 0.20 in5.1 mm 0.07 in1.8 mm
12:40 AM 48.0°F8.9°C 45.5°F7.5°C 91% 0.4 mph NW0.6 kmh NW 0.8 mph1.3 kmh 26.86 in909.6 mb 0.06 in1.5 mm 0.06 in1.5 mm 0.06 in1.5 mm
12:35 AM 48.0°F8.9°C 45.1°F7.3°C 90% 1.0 mph E1.6 kmh E 2.4 mph3.9 kmh 26.86 in909.6 mb 0.05 in1.3 mm 0.02 in0.5 mm 0.05 in1.3 mm
12:31 AM 48.0°F8.9°C 45.1°F7.3°C 90% 0.8 mph E1.3 kmh E 1.3 mph2.1 kmh 26.86 in909.6 mb 0.05 in1.3 mm 0.02 in0.5 mm 0.05 in1.3 mm
12:25 AM 48.0°F8.9°C 45.0°F7.2°C 89% 0.7 mph E1.1 kmh E 1.8 mph2.9 kmh 26.87 in909.9 mb 0.05 in1.3 mm 0.00 in0.0 mm 0.05 in1.3 mm
12:21 AM 48.4°F9.1°C 45.3°F7.4°C 89% 1.1 mph ENE1.8 kmh ENE 1.6 mph2.6 kmh 26.87 in909.9 mb 0.05 in1.3 mm 0.06 in1.5 mm 0.05 in1.3 mm
12:16 AM 48.6°F9.2°C 44.6°F7.0°C 86% 0.6 mph E1.0 kmh E 1.1 mph1.8 kmh 26.88 in910.3 mb 0.04 in1.0 mm 0.13 in3.3 mm 0.04 in1.0 mm
12:11 AM 48.7°F9.3°C 44.4°F6.9°C 85% 0.5 mph SSW0.8 kmh SSW 1.1 mph1.8 kmh 26.88 in910.3 mb 0.03 in0.8 mm 0.17 in4.3 mm 0.03 in0.8 mm
12:06 AM 49.1°F9.5°C 43.9°F6.6°C 82% 0.5 mph E0.8 kmh E 1.2 mph1.9 kmh 26.88 in910.3 mb 0.02 in0.5 mm 0.17 in4.3 mm 0.02 in0.5 mm
12:01 AM 49.3°F9.6°C 43.0°F6.1°C 79% 1.2 mph E1.9 kmh E 2.6 mph4.2 kmh 26.87 in909.9 mb 0.00 in0.0 mm 0.18 in4.6 mm 0.00 in0.0 mm